Main page
METAR-TAF:

METAR-TAF

Airports :

Charles de Gaulle Airport

Paris-Charles De Gaulle, France

latitude: 49-01N, longitude: 002-32E, elevation: 118 m

Current weather observation

The report was made 18 minutes ago, at 01:00 UTC
Wind 7 kt from the South
Temperature 15°C
Humidity 77%
Pressure 1029 hPa
Visibility 10 km or more
no clouds below 1500 m and no cumulonimbus

METAR: LFPG 130100Z 17007KT CAVOK 15/11 Q1029 NOSIG

Time: 03:18 (01:18 UTC)

Forecast

The report was made 2 hours and 18 minutes ago, at 23:00 UTC
Forecast valid from 13 at 00 UTC to 14 at 06 UTC
Wind 5 kt from the South/Southeast
Visibility 10 km or more
no clouds below 1500 m and no cumulonimbus
Becoming
from 13 at 10 UTC to 13 at 12 UTC
Wind 10 kt from the Southwest
Becoming
from 13 at 20 UTC to 13 at 22 UTC
Wind 10 kt from the West/Northwest

TAF: LFPG 122300Z 1300/1406 15005KT CAVOK TX25/1315Z TN11/1405Z BECMG 1310/1312 22010KT BECMG 1320/1322 30010KT

Weather observations and forecasts of more than 4000 airports (METAR and TAF reports).

The available stations are represented by yellow and red dots on the map.

Hover mouse over dot to see the name of the station.

Then click to see weather observations and forecasts.

To change the map : click on the green buttons with a black cross to zoom in, on the green button with a dash to zoom out, or on the green arrows for adjacent maps.


METAR-TAF: